sensor_id;sensor_type;location;lat;lon;timestamp;P1;durP1;ratioP1;P2;durP2;ratioP2
80567;SDS011;69922;45.656;25.586;2024-03-06T00:00:32;27.10;;;13.80;;
80567;SDS011;69922;45.656;25.586;2024-03-06T00:01:59;26.40;;;13.10;;
80567;SDS011;69922;45.656;25.586;2024-03-06T00:03:07;23.60;;;12.80;;
80567;SDS011;69922;45.656;25.586;2024-03-06T00:04:13;26.40;;;13.20;;
80567;SDS011;69922;45.656;25.586;2024-03-06T00:05:23;27.40;;;13.20;;
80567;SDS011;69922;45.656;25.586;2024-03-06T00:06:30;24.80;;;13.60;;
80567;SDS011;69922;45.656;25.586;2024-03-06T00:07:36;29.90;;;13.80;;
80567;SDS011;69922;45.656;25.586;2024-03-06T00:08:43;24.40;;;12.90;;
80567;SDS011;69922;45.656;25.586;2024-03-06T00:09:49;27.50;;;14.60;;
80567;SDS011;69922;45.656;25.586;2024-03-06T00:10:57;27.90;;;14.20;;
80567;SDS011;69922;45.656;25.586;2024-03-06T00:12:05;27.60;;;15.00;;
80567;SDS011;69922;45.656;25.586;2024-03-06T00:13:11;26.70;;;14.40;;
80567;SDS011;69922;45.656;25.586;2024-03-06T00:14:18;26.20;;;14.20;;
80567;SDS011;69922;45.656;25.586;2024-03-06T00:15:28;26.10;;;14.00;;
80567;SDS011;69922;45.656;25.586;2024-03-06T00:16:35;28.00;;;14.50;;
80567;SDS011;69922;45.656;25.586;2024-03-06T00:17:42;31.20;;;14.90;;
80567;SDS011;69922;45.656;25.586;2024-03-06T00:18:49;28.30;;;15.20;;
80567;SDS011;69922;45.656;25.586;2024-03-06T00:19:55;30.00;;;14.40;;
80567;SDS011;69922;45.656;25.586;2024-03-06T00:21:02;28.60;;;13.90;;
80567;SDS011;69922;45.656;25.586;2024-03-06T00:22:10;23.00;;;12.80;;
80567;SDS011;69922;45.656;25.586;2024-03-06T00:23:17;27.80;;;13.70;;
80567;SDS011;69922;45.656;25.586;2024-03-06T00:24:25;26.30;;;13.90;;
80567;SDS011;69922;45.656;25.586;2024-03-06T00:25:31;26.50;;;13.90;;
80567;SDS011;69922;45.656;25.586;2024-03-06T00:26:40;25.80;;;14.20;;
80567;SDS011;69922;45.656;25.586;2024-03-06T00:27:48;27.40;;;14.30;;
80567;SDS011;69922;45.656;25.586;2024-03-06T00:28:55;29.50;;;15.10;;
80567;SDS011;69922;45.656;25.586;2024-03-06T00:30:02;26.20;;;14.40;;
80567;SDS011;69922;45.656;25.586;2024-03-06T00:31:11;23.10;;;12.40;;
80567;SDS011;69922;45.656;25.586;2024-03-06T00:32:18;26.00;;;13.90;;
80567;SDS011;69922;45.656;25.586;2024-03-06T00:33:25;26.90;;;13.50;;
80567;SDS011;69922;45.656;25.586;2024-03-06T00:34:31;26.50;;;14.00;;
80567;SDS011;69922;45.656;25.586;2024-03-06T00:35:38;32.80;;;16.70;;
80567;SDS011;69922;45.656;25.586;2024-03-06T00:36:44;28.70;;;14.90;;
80567;SDS011;69922;45.656;25.586;2024-03-06T00:37:51;29.70;;;15.30;;
80567;SDS011;69922;45.656;25.586;2024-03-06T00:38:58;30.20;;;16.00;;
80567;SDS011;69922;45.656;25.586;2024-03-06T00:40:06;32.20;;;16.80;;
80567;SDS011;69922;45.656;25.586;2024-03-06T00:41:14;28.90;;;15.50;;
80567;SDS011;69922;45.656;25.586;2024-03-06T00:42:21;27.90;;;15.40;;
80567;SDS011;69922;45.656;25.586;2024-03-06T00:43:29;29.60;;;16.00;;
80567;SDS011;69922;45.656;25.586;2024-03-06T00:44:35;27.90;;;15.30;;
80567;SDS011;69922;45.656;25.586;2024-03-06T00:45:42;31.70;;;15.90;;
80567;SDS011;69922;45.656;25.586;2024-03-06T00:46:49;30.40;;;16.50;;
80567;SDS011;69922;45.656;25.586;2024-03-06T00:47:55;33.20;;;16.90;;
80567;SDS011;69922;45.656;25.586;2024-03-06T00:49:02;30.60;;;17.60;;
80567;SDS011;69922;45.656;25.586;2024-03-06T00:50:09;32.40;;;15.40;;
80567;SDS011;69922;45.656;25.586;2024-03-06T00:51:16;31.70;;;16.00;;
80567;SDS011;69922;45.656;25.586;2024-03-06T00:52:32;27.90;;;14.70;;
80567;SDS011;69922;45.656;25.586;2024-03-06T00:53:39;29.70;;;15.70;;
80567;SDS011;69922;45.656;25.586;2024-03-06T00:54:46;29.20;;;16.30;;
80567;SDS011;69922;45.656;25.586;2024-03-06T00:55:52;33.20;;;16.20;;
80567;SDS011;69922;45.656;25.586;2024-03-06T00:56:58;32.10;;;16.20;;
80567;SDS011;69922;45.656;25.586;2024-03-06T00:58:06;32.90;;;16.40;;
80567;SDS011;69922;45.656;25.586;2024-03-06T00:59:13;30.50;;;16.30;;
80567;SDS011;69922;45.656;25.586;2024-03-06T01:00:21;30.60;;;15.70;;
80567;SDS011;69922;45.656;25.586;2024-03-06T01:01:28;30.90;;;16.10;;
80567;SDS011;69922;45.656;25.586;2024-03-06T01:02:35;31.10;;;16.50;;
80567;SDS011;69922;45.656;25.586;2024-03-06T01:03:41;34.70;;;14.50;;
80567;SDS011;69922;45.656;25.586;2024-03-06T01:04:48;29.10;;;17.10;;
80567;SDS011;69922;45.656;25.586;2024-03-06T01:05:55;35.10;;;17.20;;
80567;SDS011;69922;45.656;25.586;2024-03-06T01:07:02;32.40;;;16.00;;
80567;SDS011;69922;45.656;25.586;2024-03-06T01:08:08;36.20;;;18.10;;
80567;SDS011;69922;45.656;25.586;2024-03-06T01:09:15;37.10;;;18.10;;
80567;SDS011;69922;45.656;25.586;2024-03-06T01:10:22;30.80;;;15.60;;
80567;SDS011;69922;45.656;25.586;2024-03-06T01:11:28;35.30;;;17.90;;
80567;SDS011;69922;45.656;25.586;2024-03-06T01:12:35;29.40;;;15.10;;
80567;SDS011;69922;45.656;25.586;2024-03-06T01:13:42;33.80;;;16.10;;
80567;SDS011;69922;45.656;25.586;2024-03-06T01:14:49;31.00;;;16.60;;
80567;SDS011;69922;45.656;25.586;2024-03-06T01:15:55;36.90;;;18.50;;
80567;SDS011;69922;45.656;25.586;2024-03-06T01:17:02;36.90;;;18.80;;
80567;SDS011;69922;45.656;25.586;2024-03-06T01:18:10;34.70;;;18.90;;
80567;SDS011;69922;45.656;25.586;2024-03-06T01:19:17;38.10;;;18.00;;
80567;SDS011;69922;45.656;25.586;2024-03-06T01:20:24;38.30;;;18.70;;
80567;SDS011;69922;45.656;25.586;2024-03-06T01:21:31;37.10;;;19.00;;
80567;SDS011;69922;45.656;25.586;2024-03-06T01:22:38;40.40;;;21.60;;
80567;SDS011;69922;45.656;25.586;2024-03-06T01:23:45;37.80;;;18.10;;
80567;SDS011;69922;45.656;25.586;2024-03-06T01:24:51;39.10;;;18.50;;
80567;SDS011;69922;45.656;25.586;2024-03-06T01:25:58;35.90;;;18.70;;
80567;SDS011;69922;45.656;25.586;2024-03-06T01:27:05;36.20;;;18.40;;
80567;SDS011;69922;45.656;25.586;2024-03-06T01:28:12;37.60;;;18.40;;
80567;SDS011;69922;45.656;25.586;2024-03-06T01:29:19;34.60;;;18.10;;
80567;SDS011;69922;45.656;25.586;2024-03-06T01:30:26;35.60;;;17.60;;
80567;SDS011;69922;45.656;25.586;2024-03-06T01:31:33;36.60;;;17.40;;
80567;SDS011;69922;45.656;25.586;2024-03-06T01:32:39;37.50;;;18.80;;
80567;SDS011;69922;45.656;25.586;2024-03-06T01:33:46;42.20;;;20.80;;
80567;SDS011;69922;45.656;25.586;2024-03-06T01:34:53;41.00;;;19.40;;
80567;SDS011;69922;45.656;25.586;2024-03-06T01:35:59;38.10;;;19.20;;
80567;SDS011;69922;45.656;25.586;2024-03-06T01:37:06;38.90;;;20.00;;
80567;SDS011;69922;45.656;25.586;2024-03-06T01:38:13;39.30;;;18.30;;
80567;SDS011;69922;45.656;25.586;2024-03-06T01:39:21;38.20;;;19.80;;
80567;SDS011;69922;45.656;25.586;2024-03-06T01:40:28;38.90;;;19.60;;
80567;SDS011;69922;45.656;25.586;2024-03-06T01:41:34;36.70;;;19.20;;
80567;SDS011;69922;45.656;25.586;2024-03-06T01:42:40;37.20;;;17.90;;
80567;SDS011;69922;45.656;25.586;2024-03-06T01:43:46;37.90;;;19.20;;
80567;SDS011;69922;45.656;25.586;2024-03-06T01:44:53;40.00;;;18.60;;
80567;SDS011;69922;45.656;25.586;2024-03-06T01:46:00;40.50;;;18.00;;
80567;SDS011;69922;45.656;25.586;2024-03-06T01:47:08;39.70;;;19.40;;
80567;SDS011;69922;45.656;25.586;2024-03-06T01:48:15;38.50;;;18.40;;
80567;SDS011;69922;45.656;25.586;2024-03-06T01:49:24;34.70;;;17.60;;
80567;SDS011;69922;45.656;25.586;2024-03-06T01:50:44;33.50;;;16.50;;
80567;SDS011;69922;45.656;25.586;2024-03-06T01:51:52;36.50;;;17.60;;
80567;SDS011;69922;45.656;25.586;2024-03-06T01:53:00;32.00;;;17.70;;
80567;SDS011;69922;45.656;25.586;2024-03-06T01:54:07;37.90;;;17.50;;
80567;SDS011;69922;45.656;25.586;2024-03-06T01:55:15;38.30;;;19.30;;
80567;SDS011;69922;45.656;25.586;2024-03-06T01:56:22;35.90;;;18.40;;
80567;SDS011;69922;45.656;25.586;2024-03-06T01:57:29;35.40;;;18.60;;
80567;SDS011;69922;45.656;25.586;2024-03-06T01:58:36;34.40;;;18.40;;
80567;SDS011;69922;45.656;25.586;2024-03-06T01:59:43;34.30;;;18.50;;
80567;SDS011;69922;45.656;25.586;2024-03-06T02:00:50;38.10;;;19.10;;
80567;SDS011;69922;45.656;25.586;2024-03-06T02:01:57;38.00;;;18.40;;
80567;SDS011;69922;45.656;25.586;2024-03-06T02:03:06;36.00;;;18.00;;
80567;SDS011;69922;45.656;25.586;2024-03-06T02:04:13;37.70;;;19.20;;
80567;SDS011;69922;45.656;25.586;2024-03-06T02:05:22;34.70;;;17.00;;
80567;SDS011;69922;45.656;25.586;2024-03-06T02:06:29;33.30;;;16.90;;
80567;SDS011;69922;45.656;25.586;2024-03-06T02:07:36;33.10;;;18.10;;
80567;SDS011;69922;45.656;25.586;2024-03-06T02:08:46;36.20;;;17.60;;
80567;SDS011;69922;45.656;25.586;2024-03-06T02:09:53;33.50;;;17.20;;
80567;SDS011;69922;45.656;25.586;2024-03-06T02:10:59;30.20;;;16.60;;
80567;SDS011;69922;45.656;25.586;2024-03-06T02:12:08;39.10;;;19.10;;
80567;SDS011;69922;45.656;25.586;2024-03-06T02:13:14;36.60;;;19.40;;
80567;SDS011;69922;45.656;25.586;2024-03-06T02:14:22;32.40;;;16.60;;
80567;SDS011;69922;45.656;25.586;2024-03-06T02:15:29;35.80;;;17.00;;
80567;SDS011;69922;45.656;25.586;2024-03-06T02:16:35;35.90;;;18.30;;
80567;SDS011;69922;45.656;25.586;2024-03-06T02:17:45;33.60;;;17.70;;
80567;SDS011;69922;45.656;25.586;2024-03-06T02:18:52;37.00;;;20.30;;
80567;SDS011;69922;45.656;25.586;2024-03-06T02:20:01;31.40;;;16.60;;
80567;SDS011;69922;45.656;25.586;2024-03-06T02:21:10;34.50;;;18.00;;
80567;SDS011;69922;45.656;25.586;2024-03-06T02:22:17;35.40;;;16.80;;
80567;SDS011;69922;45.656;25.586;2024-03-06T02:23:24;34.10;;;17.50;;
80567;SDS011;69922;45.656;25.586;2024-03-06T02:24:31;35.50;;;17.50;;
80567;SDS011;69922;45.656;25.586;2024-03-06T02:25:38;39.70;;;18.30;;
80567;SDS011;69922;45.656;25.586;2024-03-06T02:26:46;29.80;;;15.60;;
80567;SDS011;69922;45.656;25.586;2024-03-06T02:27:52;33.90;;;16.60;;
80567;SDS011;69922;45.656;25.586;2024-03-06T02:28:58;32.40;;;17.20;;
80567;SDS011;69922;45.656;25.586;2024-03-06T02:30:07;36.10;;;17.40;;
80567;SDS011;69922;45.656;25.586;2024-03-06T02:32:19;25.80;;;13.50;;
80567;SDS011;69922;45.656;25.586;2024-03-06T02:33:29;33.20;;;16.90;;
80567;SDS011;69922;45.656;25.586;2024-03-06T02:34:35;25.80;;;14.00;;
80567;SDS011;69922;45.656;25.586;2024-03-06T02:35:42;30.70;;;16.40;;
80567;SDS011;69922;45.656;25.586;2024-03-06T02:36:50;30.70;;;15.60;;
80567;SDS011;69922;45.656;25.586;2024-03-06T02:37:57;28.00;;;15.50;;
80567;SDS011;69922;45.656;25.586;2024-03-06T02:39:06;31.70;;;15.80;;
80567;SDS011;69922;45.656;25.586;2024-03-06T02:40:13;28.30;;;15.00;;
80567;SDS011;69922;45.656;25.586;2024-03-06T02:41:20;33.70;;;16.00;;
80567;SDS011;69922;45.656;25.586;2024-03-06T02:42:27;32.80;;;16.10;;
80567;SDS011;69922;45.656;25.586;2024-03-06T02:43:35;32.10;;;15.70;;
80567;SDS011;69922;45.656;25.586;2024-03-06T02:44:42;28.90;;;15.20;;
80567;SDS011;69922;45.656;25.586;2024-03-06T02:45:49;31.50;;;15.50;;
80567;SDS011;69922;45.656;25.586;2024-03-06T02:46:56;33.00;;;15.50;;
80567;SDS011;69922;45.656;25.586;2024-03-06T02:48:04;28.50;;;14.70;;
80567;SDS011;69922;45.656;25.586;2024-03-06T02:49:12;31.50;;;15.40;;
80567;SDS011;69922;45.656;25.586;2024-03-06T02:50:19;33.40;;;15.90;;
80567;SDS011;69922;45.656;25.586;2024-03-06T02:51:27;32.50;;;16.40;;
80567;SDS011;69922;45.656;25.586;2024-03-06T02:52:34;29.50;;;15.50;;
80567;SDS011;69922;45.656;25.586;2024-03-06T02:53:40;31.50;;;15.50;;
80567;SDS011;69922;45.656;25.586;2024-03-06T02:54:48;32.50;;;15.50;;
80567;SDS011;69922;45.656;25.586;2024-03-06T02:55:54;32.30;;;15.80;;
80567;SDS011;69922;45.656;25.586;2024-03-06T02:57:01;33.70;;;16.50;;
80567;SDS011;69922;45.656;25.586;2024-03-06T02:58:08;30.90;;;17.20;;
80567;SDS011;69922;45.656;25.586;2024-03-06T02:59:14;31.60;;;15.50;;
80567;SDS011;69922;45.656;25.586;2024-03-06T03:00:21;33.20;;;16.10;;
80567;SDS011;69922;45.656;25.586;2024-03-06T03:01:28;28.40;;;14.90;;
80567;SDS011;69922;45.656;25.586;2024-03-06T03:02:35;28.50;;;15.70;;
80567;SDS011;69922;45.656;25.586;2024-03-06T03:03:42;34.30;;;16.10;;
80567;SDS011;69922;45.656;25.586;2024-03-06T03:04:51;30.10;;;15.80;;
80567;SDS011;69922;45.656;25.586;2024-03-06T03:05:58;29.10;;;15.20;;
80567;SDS011;69922;45.656;25.586;2024-03-06T03:07:05;32.50;;;16.10;;
80567;SDS011;69922;45.656;25.586;2024-03-06T03:08:12;31.70;;;16.80;;
80567;SDS011;69922;45.656;25.586;2024-03-06T03:09:20;39.50;;;18.00;;
80567;SDS011;69922;45.656;25.586;2024-03-06T03:10:27;36.00;;;16.90;;
80567;SDS011;69922;45.656;25.586;2024-03-06T03:11:34;31.60;;;16.30;;
80567;SDS011;69922;45.656;25.586;2024-03-06T03:12:41;31.90;;;16.00;;
80567;SDS011;69922;45.656;25.586;2024-03-06T03:13:48;29.90;;;16.30;;
80567;SDS011;69922;45.656;25.586;2024-03-06T03:14:54;29.50;;;15.00;;
80567;SDS011;69922;45.656;25.586;2024-03-06T03:16:01;29.00;;;15.10;;
80567;SDS011;69922;45.656;25.586;2024-03-06T03:17:08;31.50;;;16.60;;
80567;SDS011;69922;45.656;25.586;2024-03-06T03:18:15;30.60;;;15.50;;
80567;SDS011;69922;45.656;25.586;2024-03-06T03:19:23;29.10;;;13.70;;
80567;SDS011;69922;45.656;25.586;2024-03-06T03:20:30;27.70;;;14.30;;
80567;SDS011;69922;45.656;25.586;2024-03-06T03:21:36;27.40;;;14.10;;
80567;SDS011;69922;45.656;25.586;2024-03-06T03:22:46;30.50;;;14.80;;
80567;SDS011;69922;45.656;25.586;2024-03-06T03:23:53;28.30;;;14.80;;
80567;SDS011;69922;45.656;25.586;2024-03-06T03:25:00;30.00;;;15.00;;
80567;SDS011;69922;45.656;25.586;2024-03-06T03:26:08;29.60;;;14.10;;
80567;SDS011;69922;45.656;25.586;2024-03-06T03:27:15;31.70;;;16.60;;
80567;SDS011;69922;45.656;25.586;2024-03-06T03:28:22;26.80;;;14.40;;
80567;SDS011;69922;45.656;25.586;2024-03-06T03:29:28;27.20;;;14.00;;
80567;SDS011;69922;45.656;25.586;2024-03-06T03:30:35;30.40;;;15.00;;
80567;SDS011;69922;45.656;25.586;2024-03-06T03:31:41;28.10;;;14.90;;
80567;SDS011;69922;45.656;25.586;2024-03-06T03:32:48;31.90;;;16.40;;
80567;SDS011;69922;45.656;25.586;2024-03-06T03:33:55;26.80;;;14.70;;
80567;SDS011;69922;45.656;25.586;2024-03-06T03:35:02;29.30;;;14.40;;
80567;SDS011;69922;45.656;25.586;2024-03-06T03:36:11;31.20;;;15.40;;
80567;SDS011;69922;45.656;25.586;2024-03-06T03:37:18;30.00;;;15.80;;
80567;SDS011;69922;45.656;25.586;2024-03-06T03:38:25;33.30;;;15.00;;
80567;SDS011;69922;45.656;25.586;2024-03-06T03:39:32;31.50;;;15.20;;
80567;SDS011;69922;45.656;25.586;2024-03-06T03:40:38;30.10;;;15.60;;
80567;SDS011;69922;45.656;25.586;2024-03-06T03:41:45;24.80;;;13.20;;
80567;SDS011;69922;45.656;25.586;2024-03-06T03:42:53;29.20;;;16.40;;
80567;SDS011;69922;45.656;25.586;2024-03-06T03:44:00;30.10;;;16.50;;
80567;SDS011;69922;45.656;25.586;2024-03-06T03:45:07;33.90;;;15.60;;
80567;SDS011;69922;45.656;25.586;2024-03-06T03:46:14;31.00;;;15.60;;
80567;SDS011;69922;45.656;25.586;2024-03-06T03:47:21;29.50;;;15.10;;
80567;SDS011;69922;45.656;25.586;2024-03-06T03:48:28;30.20;;;15.00;;
80567;SDS011;69922;45.656;25.586;2024-03-06T03:49:35;31.30;;;16.30;;
80567;SDS011;69922;45.656;25.586;2024-03-06T03:50:41;32.10;;;15.90;;
80567;SDS011;69922;45.656;25.586;2024-03-06T03:51:49;31.80;;;15.70;;
80567;SDS011;69922;45.656;25.586;2024-03-06T03:52:56;30.10;;;15.50;;
80567;SDS011;69922;45.656;25.586;2024-03-06T03:54:05;31.70;;;16.20;;
80567;SDS011;69922;45.656;25.586;2024-03-06T03:55:12;28.70;;;15.60;;
80567;SDS011;69922;45.656;25.586;2024-03-06T03:56:19;29.60;;;14.90;;
80567;SDS011;69922;45.656;25.586;2024-03-06T03:57:26;27.00;;;14.90;;
80567;SDS011;69922;45.656;25.586;2024-03-06T03:58:35;29.90;;;14.90;;
80567;SDS011;69922;45.656;25.586;2024-03-06T03:59:41;29.60;;;15.00;;
80567;SDS011;69922;45.656;25.586;2024-03-06T04:00:49;31.80;;;14.10;;
80567;SDS011;69922;45.656;25.586;2024-03-06T04:02:00;30.60;;;14.10;;
80567;SDS011;69922;45.656;25.586;2024-03-06T04:03:06;28.50;;;14.40;;
80567;SDS011;69922;45.656;25.586;2024-03-06T04:04:13;30.40;;;15.00;;
80567;SDS011;69922;45.656;25.586;2024-03-06T04:05:20;29.60;;;15.10;;
80567;SDS011;69922;45.656;25.586;2024-03-06T04:06:27;25.30;;;13.90;;
80567;SDS011;69922;45.656;25.586;2024-03-06T04:07:34;28.80;;;14.20;;
80567;SDS011;69922;45.656;25.586;2024-03-06T04:08:41;30.00;;;14.70;;
80567;SDS011;69922;45.656;25.586;2024-03-06T04:09:48;29.40;;;14.40;;
80567;SDS011;69922;45.656;25.586;2024-03-06T04:10:55;27.80;;;14.40;;
80567;SDS011;69922;45.656;25.586;2024-03-06T04:12:01;27.60;;;14.10;;
80567;SDS011;69922;45.656;25.586;2024-03-06T04:13:08;29.20;;;14.60;;
80567;SDS011;69922;45.656;25.586;2024-03-06T04:14:15;26.90;;;14.20;;
80567;SDS011;69922;45.656;25.586;2024-03-06T04:15:21;29.90;;;14.10;;
80567;SDS011;69922;45.656;25.586;2024-03-06T04:16:28;26.50;;;13.20;;
80567;SDS011;69922;45.656;25.586;2024-03-06T04:17:38;28.60;;;14.00;;
80567;SDS011;69922;45.656;25.586;2024-03-06T04:18:46;29.40;;;14.50;;
80567;SDS011;69922;45.656;25.586;2024-03-06T04:19:53;29.90;;;14.50;;
80567;SDS011;69922;45.656;25.586;2024-03-06T04:21:00;26.90;;;14.20;;
80567;SDS011;69922;45.656;25.586;2024-03-06T04:22:09;25.10;;;13.40;;
80567;SDS011;69922;45.656;25.586;2024-03-06T04:23:16;30.70;;;14.50;;
80567;SDS011;69922;45.656;25.586;2024-03-06T04:24:23;28.60;;;14.60;;
80567;SDS011;69922;45.656;25.586;2024-03-06T04:25:31;28.80;;;13.90;;
80567;SDS011;69922;45.656;25.586;2024-03-06T04:26:38;27.30;;;13.10;;
80567;SDS011;69922;45.656;25.586;2024-03-06T04:27:44;26.70;;;15.70;;
80567;SDS011;69922;45.656;25.586;2024-03-06T04:28:51;27.00;;;13.70;;
80567;SDS011;69922;45.656;25.586;2024-03-06T04:29:58;29.60;;;14.30;;
80567;SDS011;69922;45.656;25.586;2024-03-06T04:31:06;28.80;;;15.10;;
80567;SDS011;69922;45.656;25.586;2024-03-06T04:32:14;24.30;;;13.10;;
80567;SDS011;69922;45.656;25.586;2024-03-06T04:33:21;28.20;;;14.40;;
80567;SDS011;69922;45.656;25.586;2024-03-06T04:34:29;29.00;;;14.30;;
80567;SDS011;69922;45.656;25.586;2024-03-06T04:35:36;30.70;;;15.50;;
80567;SDS011;69922;45.656;25.586;2024-03-06T04:36:42;26.70;;;13.60;;
80567;SDS011;69922;45.656;25.586;2024-03-06T04:37:49;29.90;;;14.60;;
80567;SDS011;69922;45.656;25.586;2024-03-06T04:38:56;28.00;;;13.20;;
80567;SDS011;69922;45.656;25.586;2024-03-06T04:40:03;27.10;;;14.50;;
80567;SDS011;69922;45.656;25.586;2024-03-06T04:41:12;31.90;;;14.20;;
80567;SDS011;69922;45.656;25.586;2024-03-06T04:42:19;30.50;;;15.50;;
80567;SDS011;69922;45.656;25.586;2024-03-06T04:43:25;31.30;;;14.90;;
80567;SDS011;69922;45.656;25.586;2024-03-06T04:44:32;27.20;;;14.60;;
80567;SDS011;69922;45.656;25.586;2024-03-06T04:45:40;30.50;;;15.10;;
80567;SDS011;69922;45.656;25.586;2024-03-06T04:46:49;29.10;;;14.30;;
80567;SDS011;69922;45.656;25.586;2024-03-06T04:47:56;30.20;;;16.00;;
80567;SDS011;69922;45.656;25.586;2024-03-06T04:49:03;28.60;;;14.70;;
80567;SDS011;69922;45.656;25.586;2024-03-06T04:50:10;32.20;;;14.60;;
80567;SDS011;69922;45.656;25.586;2024-03-06T04:51:22;29.20;;;16.00;;
80567;SDS011;69922;45.656;25.586;2024-03-06T04:52:29;31.10;;;15.40;;
80567;SDS011;69922;45.656;25.586;2024-03-06T04:53:35;29.50;;;15.50;;
80567;SDS011;69922;45.656;25.586;2024-03-06T04:54:42;30.80;;;14.80;;
80567;SDS011;69922;45.656;25.586;2024-03-06T04:55:49;32.10;;;16.10;;
80567;SDS011;69922;45.656;25.586;2024-03-06T04:56:57;27.90;;;15.70;;
80567;SDS011;69922;45.656;25.586;2024-03-06T04:58:04;32.10;;;16.10;;
80567;SDS011;69922;45.656;25.586;2024-03-06T04:59:10;29.70;;;15.90;;
80567;SDS011;69922;45.656;25.586;2024-03-06T05:00:19;31.50;;;15.80;;
80567;SDS011;69922;45.656;25.586;2024-03-06T05:01:25;31.70;;;15.80;;
80567;SDS011;69922;45.656;25.586;2024-03-06T05:02:33;33.10;;;15.90;;
80567;SDS011;69922;45.656;25.586;2024-03-06T05:03:58;29.00;;;15.10;;
80567;SDS011;69922;45.656;25.586;2024-03-06T05:05:23;30.60;;;14.90;;
80567;SDS011;69922;45.656;25.586;2024-03-06T05:06:48;28.00;;;13.90;;
80567;SDS011;69922;45.656;25.586;2024-03-06T05:08:12;29.30;;;13.40;;
80567;SDS011;69922;45.656;25.586;2024-03-06T05:09:37;34.80;;;16.30;;
80567;SDS011;69922;45.656;25.586;2024-03-06T05:11:04;30.70;;;15.60;;
80567;SDS011;69922;45.656;25.586;2024-03-06T05:12:29;37.50;;;17.70;;
80567;SDS011;69922;45.656;25.586;2024-03-06T05:13:57;38.20;;;17.30;;
80567;SDS011;69922;45.656;25.586;2024-03-06T05:15:22;35.50;;;17.30;;
80567;SDS011;69922;45.656;25.586;2024-03-06T05:16:46;39.30;;;17.70;;
80567;SDS011;69922;45.656;25.586;2024-03-06T05:18:10;39.60;;;19.50;;
80567;SDS011;69922;45.656;25.586;2024-03-06T05:19:35;35.70;;;19.20;;
80567;SDS011;69922;45.656;25.586;2024-03-06T05:20:59;34.20;;;16.60;;
80567;SDS011;69922;45.656;25.586;2024-03-06T05:22:24;34.70;;;18.10;;
80567;SDS011;69922;45.656;25.586;2024-03-06T05:23:48;42.10;;;18.70;;
80567;SDS011;69922;45.656;25.586;2024-03-06T05:25:13;35.90;;;17.10;;
80567;SDS011;69922;45.656;25.586;2024-03-06T05:26:37;27.90;;;14.40;;
80567;SDS011;69922;45.656;25.586;2024-03-06T05:28:01;34.30;;;16.90;;
80567;SDS011;69922;45.656;25.586;2024-03-06T05:29:26;36.70;;;17.80;;
80567;SDS011;69922;45.656;25.586;2024-03-06T05:30:50;32.40;;;14.60;;
80567;SDS011;69922;45.656;25.586;2024-03-06T05:32:14;33.30;;;15.30;;
80567;SDS011;69922;45.656;25.586;2024-03-06T05:33:38;34.10;;;17.70;;
80567;SDS011;69922;45.656;25.586;2024-03-06T05:35:02;37.00;;;19.00;;
80567;SDS011;69922;45.656;25.586;2024-03-06T05:36:27;34.60;;;17.10;;
80567;SDS011;69922;45.656;25.586;2024-03-06T05:37:52;38.20;;;16.40;;
80567;SDS011;69922;45.656;25.586;2024-03-06T05:39:16;42.20;;;18.60;;
80567;SDS011;69922;45.656;25.586;2024-03-06T05:40:40;39.30;;;18.80;;
80567;SDS011;69922;45.656;25.586;2024-03-06T05:42:08;36.60;;;19.30;;
80567;SDS011;69922;45.656;25.586;2024-03-06T05:43:32;33.30;;;16.60;;
80567;SDS011;69922;45.656;25.586;2024-03-06T05:44:56;38.50;;;19.10;;
80567;SDS011;69922;45.656;25.586;2024-03-06T05:46:26;33.10;;;17.20;;
80567;SDS011;69922;45.656;25.586;2024-03-06T05:47:50;35.20;;;17.30;;
80567;SDS011;69922;45.656;25.586;2024-03-06T05:49:16;35.80;;;18.20;;
80567;SDS011;69922;45.656;25.586;2024-03-06T05:50:40;28.50;;;13.70;;
80567;SDS011;69922;45.656;25.586;2024-03-06T05:52:05;35.60;;;18.00;;
80567;SDS011;69922;45.656;25.586;2024-03-06T05:53:29;38.80;;;19.90;;
80567;SDS011;69922;45.656;25.586;2024-03-06T05:54:57;34.50;;;17.90;;
80567;SDS011;69922;45.656;25.586;2024-03-06T05:56:22;39.90;;;17.30;;
80567;SDS011;69922;45.656;25.586;2024-03-06T05:57:47;36.40;;;18.20;;
80567;SDS011;69922;45.656;25.586;2024-03-06T05:59:12;42.10;;;18.70;;
80567;SDS011;69922;45.656;25.586;2024-03-06T06:00:20;32.90;;;17.70;;
80567;SDS011;69922;45.656;25.586;2024-03-06T06:01:27;33.30;;;15.90;;
80567;SDS011;69922;45.656;25.586;2024-03-06T06:02:33;32.80;;;17.00;;
80567;SDS011;69922;45.656;25.586;2024-03-06T06:03:41;31.20;;;17.30;;
80567;SDS011;69922;45.656;25.586;2024-03-06T06:04:49;34.70;;;17.80;;
80567;SDS011;69922;45.656;25.586;2024-03-06T06:06:16;33.90;;;17.40;;
80567;SDS011;69922;45.656;25.586;2024-03-06T06:07:25;31.30;;;16.80;;
80567;SDS011;69922;45.656;25.586;2024-03-06T06:08:33;36.50;;;17.30;;
80567;SDS011;69922;45.656;25.586;2024-03-06T06:09:39;32.60;;;17.10;;
80567;SDS011;69922;45.656;25.586;2024-03-06T06:10:47;38.00;;;17.30;;
80567;SDS011;69922;45.656;25.586;2024-03-06T06:11:55;36.50;;;17.70;;
80567;SDS011;69922;45.656;25.586;2024-03-06T06:13:02;34.50;;;16.60;;
80567;SDS011;69922;45.656;25.586;2024-03-06T06:14:10;38.80;;;18.90;;
80567;SDS011;69922;45.656;25.586;2024-03-06T06:15:17;33.20;;;16.70;;
80567;SDS011;69922;45.656;25.586;2024-03-06T06:16:24;33.70;;;18.50;;
80567;SDS011;69922;45.656;25.586;2024-03-06T06:17:31;40.70;;;19.80;;
80567;SDS011;69922;45.656;25.586;2024-03-06T06:18:39;37.60;;;19.00;;
80567;SDS011;69922;45.656;25.586;2024-03-06T06:19:46;32.50;;;16.90;;
80567;SDS011;69922;45.656;25.586;2024-03-06T06:20:53;30.20;;;16.70;;
80567;SDS011;69922;45.656;25.586;2024-03-06T06:22:00;32.50;;;17.00;;
80567;SDS011;69922;45.656;25.586;2024-03-06T06:23:07;32.30;;;17.00;;
80567;SDS011;69922;45.656;25.586;2024-03-06T06:24:13;40.20;;;18.40;;
80567;SDS011;69922;45.656;25.586;2024-03-06T06:25:20;28.30;;;15.80;;
80567;SDS011;69922;45.656;25.586;2024-03-06T06:26:27;32.10;;;16.00;;
80567;SDS011;69922;45.656;25.586;2024-03-06T06:27:35;30.20;;;14.80;;
80567;SDS011;69922;45.656;25.586;2024-03-06T06:28:43;27.70;;;15.20;;
80567;SDS011;69922;45.656;25.586;2024-03-06T06:29:51;28.10;;;15.00;;
80567;SDS011;69922;45.656;25.586;2024-03-06T06:31:00;27.80;;;15.10;;
80567;SDS011;69922;45.656;25.586;2024-03-06T06:32:08;35.40;;;16.90;;
80567;SDS011;69922;45.656;25.586;2024-03-06T06:33:16;32.70;;;15.90;;
80567;SDS011;69922;45.656;25.586;2024-03-06T06:34:23;32.60;;;16.00;;
80567;SDS011;69922;45.656;25.586;2024-03-06T06:35:33;28.20;;;15.60;;
80567;SDS011;69922;45.656;25.586;2024-03-06T06:36:44;25.30;;;13.30;;
80567;SDS011;69922;45.656;25.586;2024-03-06T06:37:51;27.00;;;14.30;;
80567;SDS011;69922;45.656;25.586;2024-03-06T06:38:58;27.80;;;15.10;;
80567;SDS011;69922;45.656;25.586;2024-03-06T06:40:11;27.70;;;15.20;;
80567;SDS011;69922;45.656;25.586;2024-03-06T06:41:19;26.00;;;14.70;;